Terminal Aerodrome Forecast
Issued by NWS Charleston, WV

Current Version | Previous Version | Text Only | Print | Product List | Glossary Off
Versions: 1 2 3 4 5 6 7 8 9 10 11 12 13 14 15 16 17 18 19 20 21 22 23 24 25

000
FTUS41 KRLX 302100 AAB
TAFPKB
TAF AMD
KPKB 302110Z 3021/3118 24006KT P6SM VCTS SCT045CB OVC100
      TEMPO 3021/3022 2SM TSRA OVC040CB
     FM302300 28004KT P6SM BKN050
     FM310100 00000KT P6SM SCT060
     FM310800 00000KT 6SM BR SCT040
     FM311000 00000KT 3SM BR SCT040
     FM311200 00000KT 1/2SM FG OVC001
     FM311300 00000KT 3SM BR SCT001
     FM311400 VRB03KT P6SM SCT040=

USA.gov is the U.S. government's official web portal to all federal, state and local government web resources and services.